Latest Weather Observations for Bickley

IDW60801

Issued at 5:33 pm WST Thursday 21 February 2019 (issued every 10 minutes, with the page automatically refreshed every 10 minutes)

About weather observations | Map of weather stations | Latest weather observations for WA | Other Formats
Station Details ID: 009240 Name: BICKLEY Lat: -32.01 Lon: 116.14 Height: 384.0 m
Data from the previous 72 hours. | See also: Recent months at Bickley
Date/Time
WST
Temp
°C
App
Temp
°C
Dew
Point
°C
Rel
Hum
%
Delta-T
°C
Wind Press
QNH
hPa
Press
MSL
hPa
Rain since
9am
mm
Dir  Spd
km/h
Gust
km/h
Spd
kts
Gust
kts
21/05:30pm 20.7 19.8 14.8 69 3.5 W 13 22 7 12 - - 0.0
21/05:00pm 21.2 20.5 15.3 69 3.6 W 13 24 7 13 - - 0.0
21/04:30pm 21.6 20.5 15.2 67 3.9 W 15 26 8 14 - - 0.0
21/04:00pm 21.2 20.5 15.5 70 3.5 W 13 24 7 13 - - 0.0
21/03:30pm 21.5 20.5 15.6 69 3.6 W 15 26 8 14 - - 0.0
21/03:00pm 21.9 21.2 15.3 66 4.0 W 13 24 7 13 - - 0.0
21/02:30pm 21.5 20.4 15.3 68 3.7 W 15 24 8 13 - - 0.0
21/02:00pm 22.2 21.4 16.2 69 3.7 W 15 28 8 15 - - 0.0
21/01:30pm 21.9 21.3 15.7 68 3.8 W 13 26 7 14 - - 0.0
21/01:00pm 21.9 21.3 15.7 68 3.8 WNW 13 24 7 13 - - 0.0
21/12:30pm 21.4 20.7 15.5 69 3.6 W 13 26 7 14 - - 0.0
21/12:00pm 21.5 20.3 15.1 67 3.9 WNW 15 24 8 13 - - 0.0
21/11:30am 21.1 20.1 15.6 71 3.3 W 15 24 8 13 - - 0.0
21/11:00am 21.2 20.2 15.5 70 3.5 W 15 24 8 13 - - 0.0
21/10:30am 20.6 20.2 16.2 76 2.7 W 13 24 7 13 - - 0.0
21/10:00am 19.9 19.5 16.3 80 2.2 WNW 13 22 7 12 - - 0.0
21/09:30am 19.7 18.9 16.0 79 2.2 NW 15 26 8 14 - - 0.0
21/09:00am 19.2 18.7 15.9 81 2.0 WNW 13 26 7 14 - - 0.0
21/08:30am 18.8 18.2 15.7 82 1.9 WNW 13 24 7 13 - - 0.0
21/08:00am 18.3 17.7 15.7 85 1.6 WNW 13 24 7 13 - - 0.0
21/07:30am 18.0 17.8 15.6 86 1.4 WNW 11 24 6 13 - - 0.0
21/07:00am 17.5 16.5 15.5 88 1.2 WNW 15 24 8 13 - - 0.0
21/06:30am 17.3 15.9 15.5 89 1.1 WNW 17 26 9 14 - - 0.0
21/06:00am 17.0 15.5 15.2 89 1.1 WNW 17 28 9 15 - - 0.0
21/05:30am 16.8 15.3 15.2 90 0.9 WNW 17 26 9 14 - - 0.0
21/05:00am 16.6 15.0 15.1 91 0.9 WNW 17 24 9 13 - - 0.0
21/04:30am 16.3 14.8 15.2 93 0.6 WNW 17 26 9 14 - - 0.0
21/04:00am 16.4 14.5 15.3 93 0.7 WNW 19 28 10 15 - - 0.0
21/03:30am 16.6 15.9 15.3 92 0.8 WNW 13 20 7 11 - - 0.0
21/03:00am 16.4 15.2 15.1 92 0.8 WNW 15 26 8 14 - - 0.0
21/02:30am 16.7 14.7 14.9 89 1.1 WNW 19 28 10 15 - - 0.0
21/02:00am 17.1 16.3 15.1 88 1.2 WNW 13 17 7 9 - - 0.0
21/01:30am 17.4 16.9 14.9 85 1.5 W 11 22 6 12 - - 0.0
21/01:00am 17.5 16.3 15.0 85 1.5 W 15 24 8 13 - - 0.0
21/12:30am 17.6 16.8 15.2 86 1.4 W 13 22 7 12 - - 0.0
21/12:00am 17.4 15.9 15.4 88 1.2 W 17 28 9 15 - - 0.0
 
Date/Time
WST
Temp
°C
App
Temp
°C
Dew
Point
°C
Rel
Hum
%
Delta-T
°C
Wind Press
QNH
hPa
Press
MSL
hPa
Rain since
9am
mm
Dir  Spd
km/h
Gust
km/h
Spd
kts
Gust
kts
20/11:30pm 17.5 16.5 15.5 88 1.2 W 15 24 8 13 - - 0.0
20/11:00pm 17.3 15.5 15.6 90 1.0 W 19 28 10 15 - - 0.0
20/10:30pm 17.3 15.6 15.8 91 0.9 W 19 26 10 14 - - 0.0
20/10:00pm 17.1 15.6 15.4 90 1.0 W 17 24 9 13 - - 0.0
20/09:30pm 17.3 16.6 15.3 88 1.2 W 13 20 7 11 - - 0.0
20/09:00pm 17.7 16.5 15.1 85 1.5 W 15 22 8 12 - - 0.0
20/08:30pm 18.0 16.4 15.1 83 1.7 W 17 24 9 13 - - 0.0
20/08:00pm 18.6 16.9 14.7 78 2.3 W 17 28 9 15 - - 0.0
20/07:30pm 19.3 16.9 14.3 73 2.9 W 20 30 11 16 - - 0.0
20/07:00pm 20.2 17.3 13.9 67 3.7 W 22 30 12 16 - - 0.0
20/06:30pm 21.6 19.6 13.8 61 4.6 W 17 24 9 13 - - 0.0
20/06:00pm 22.7 20.2 13.5 56 5.4 W 19 28 10 15 - - 0.0
20/05:30pm 23.7 20.8 13.0 51 6.3 WSW 20 30 11 16 - - 0.0
20/05:00pm 24.8 21.7 12.1 45 7.4 W 20 32 11 17 - - 0.0
20/04:30pm 26.1 22.6 12.2 42 8.1 W 22 30 12 16 - - 0.0
20/04:00pm 26.1 22.9 11.8 41 8.3 W 20 35 11 19 - - 0.0
20/03:30pm 26.9 23.5 11.4 38 9.0 W 20 33 11 18 - - 0.0
20/03:00pm 27.8 24.6 11.8 37 9.4 W 20 32 11 17 - - 0.0
20/02:30pm 28.5 24.8 11.6 35 9.9 W 22 32 12 17 - - 0.0
20/02:00pm 29.2 25.9 11.7 34 10.3 W 20 30 11 16 - - 0.0
20/01:30pm 30.7 28.6 11.1 30 11.5 WSW 13 22 7 12 - - 0.0
20/01:00pm 30.3 27.7 10.8 30 11.4 WSW 15 26 8 14 - - 0.0
20/12:30pm 30.3 28.5 10.8 30 11.4 W 11 22 6 12 - - 0.0
20/12:00pm 29.8 28.4 10.9 31 11.0 WNW 9 17 5 9 - - 0.0
20/11:30am 28.8 27.8 10.9 33 10.4 NNW 7 13 4 7 - - 0.0
20/11:00am 27.7 26.9 10.9 35 9.7 N 6 9 3 5 - - 0.0
20/10:30am 26.8 25.5 11.3 38 9.0 ENE 9 17 5 9 - - 0.0
20/10:00am 25.8 23.9 11.9 42 8.1 ENE 13 20 7 11 - - 0.0
20/09:30am 24.9 22.5 12.5 46 7.3 E 17 30 9 16 - - 0.0
20/09:00am 22.5 20.2 11.9 51 6.1 E 15 30 8 16 - - 0.0
20/08:30am 21.5 18.1 12.6 57 5.1 E 22 33 12 18 - - 0.0
20/08:00am 20.3 16.6 12.8 62 4.3 E 24 39 13 21 - - 0.0
20/07:30am 18.4 14.1 12.2 67 3.5 ESE 26 41 14 22 - - 0.0
20/07:00am 17.3 13.7 11.8 70 3.1 E 22 43 12 23 - - 0.0
20/06:30am 16.7 12.6 11.6 72 2.8 E 24 39 13 21 - - 0.0
20/06:00am 16.6 12.5 11.3 71 2.9 E 24 39 13 21 - - 0.0
20/05:30am 16.8 11.9 11.3 70 3.0 E 28 41 15 22 - - 0.0
20/05:00am 17.0 12.9 11.3 69 3.1 E 24 43 13 23 - - 0.0
20/04:30am 17.3 13.1 11.1 67 3.4 E 24 35 13 19 - - 0.0
20/04:00am 17.7 13.5 11.0 65 3.7 E 24 39 13 21 - - 0.0
20/03:30am 18.1 14.3 11.0 63 3.9 ESE 22 39 12 21 - - 0.0
20/03:00am 18.5 14.6 10.8 61 4.2 ESE 22 43 12 23 - - 0.0
20/02:34am 18.8 13.8 10.9 60 4.4 ESE 28 46 15 25 - - 0.0
20/02:30am 18.8 14.2 10.9 60 4.4 ESE 26 41 14 22 - - 0.0
20/02:13am 19.2 14.1 10.7 58 4.7 ESE 28 46 15 25 - - 0.0
20/02:00am 19.5 15.2 10.8 57 4.8 ESE 24 44 13 24 - - 0.0
20/01:30am 20.0 14.9 10.7 55 5.2 ESE 28 44 15 24 - - 0.0
20/01:00am 20.7 17.1 10.5 52 5.6 ESE 20 35 11 19 - - 0.0
20/12:30am 21.5 16.8 10.6 50 6.1 E 26 44 14 24 - - 0.0
20/12:00am 22.0 18.0 10.5 48 6.4 ESE 22 39 12 21 - - 0.0
 
Date/Time
WST
Temp
°C
App
Temp
°C
Dew
Point
°C
Rel
Hum
%
Delta-T
°C
Wind Press
QNH
hPa
Press
MSL
hPa
Rain since
9am
mm
Dir  Spd
km/h
Gust
km/h
Spd
kts
Gust
kts
19/11:30pm 22.3 19.0 10.8 48 6.5 ESE 19 32 10 17 - - 0.0
19/11:00pm 22.9 19.6 11.0 47 6.7 ESE 19 32 10 17 - - 0.0
19/10:30pm 22.3 19.5 11.4 50 6.2 SSE 17 24 9 13 - - 0.0
19/10:00pm 22.7 19.9 11.4 49 6.4 SSW 17 22 9 12 - - 0.0
19/09:30pm 23.3 20.6 11.7 48 6.6 SSW 17 24 9 13 - - 0.0
19/09:00pm 23.2 20.2 11.9 49 6.5 SSW 19 26 10 14 - - 0.0
19/08:30pm 23.4 20.7 13.0 52 6.1 SW 19 26 10 14 - - 0.0
19/08:00pm 23.6 21.1 13.5 53 6.0 SW 19 26 10 14 - - 0.0
19/07:30pm 24.4 22.2 13.3 50 6.6 SW 17 26 9 14 - - 0.0
19/07:00pm 25.6 23.1 12.4 43 7.7 SW 17 26 9 14 - - 0.0
19/06:30pm 26.9 24.2 11.8 39 8.8 WSW 17 26 9 14 - - 0.0
19/06:00pm 28.7 25.3 11.3 34 10.2 SW 20 30 11 16 - - 0.0
19/05:30pm 30.1 27.4 11.6 32 10.9 WSW 17 30 9 16 - - 0.0
19/05:00pm 30.9 28.1 11.3 30 11.5 WSW 17 26 9 14 - - 0.0
19/04:30pm 31.7 28.8 11.0 28 12.2 WSW 17 26 9 14 - - 0.0
19/04:00pm 31.9 28.7 10.0 26 12.7 SW 17 26 9 14 - - 0.0
19/03:30pm 32.2 28.7 10.3 26 12.8 WSW 19 30 10 16 - - 0.0
19/03:00pm 33.0 30.7 9.1 23 13.7 SW 11 20 6 11 - - 0.0
19/02:30pm 33.1 31.3 7.9 21 14.2 SSW 7 13 4 7 - - 0.0
19/02:00pm 32.2 29.6 7.8 22 13.7 SSW 11 24 6 13 - - 0.0
19/01:30pm 31.6 29.4 8.0 23 13.2 WSW 9 17 5 9 - - 0.0
19/01:00pm 31.4 29.5 9.0 25 12.8 SW 9 15 5 8 - - 0.0
19/12:30pm 30.0 28.3 8.4 26 12.1 SW 7 13 4 7 - - 0.0
19/12:00pm 29.7 27.6 8.2 26 12.0 S 9 13 5 7 - - 0.0
19/11:30am 29.1 27.4 8.2 27 11.6 SSW 7 15 4 8 - - 0.0
19/11:00am 27.9 26.7 9.7 32 10.3 ESE 6 13 3 7 - - 0.0
19/10:30am 26.9 25.4 10.6 36 9.3 E 9 15 5 8 - - 0.0
19/10:00am 24.8 21.6 9.9 39 8.3 E 17 24 9 13 - - 0.0
19/09:30am 23.8 21.0 10.1 42 7.7 E 15 26 8 14 - - 0.0
19/09:00am 22.5 19.2 10.9 48 6.5 E 19 28 10 15 - - 0.0
19/08:30am 20.4 16.9 10.8 54 5.3 E 20 33 11 18 - - 0.0
19/08:00am 19.0 14.6 10.3 57 4.8 ESE 24 32 13 17 - - 0.0
19/07:30am 17.8 13.4 10.4 62 4.0 ESE 24 33 13 18 - - 0.0
19/07:00am 16.3 12.5 9.7 65 3.5 ESE 20 33 11 18 - - 0.0
19/06:30am 15.8 11.1 9.2 65 3.5 E 24 35 13 19 - - 0.0
19/06:00am 15.9 11.2 9.1 64 3.6 E 24 33 13 18 - - 0.0
19/05:30am 16.3 11.9 9.0 62 3.8 E 22 35 12 19 - - 0.0
19/05:00am 16.7 12.0 9.1 61 4.0 ESE 24 35 13 19 - - 0.0
19/04:30am 17.0 12.6 8.9 59 4.3 ESE 22 35 12 19 - - 0.0
19/04:00am 17.5 13.7 8.9 57 4.5 ESE 19 30 10 16 - - 0.0
19/03:30am 17.9 13.8 8.5 54 4.9 ESE 20 33 11 18 - - 0.0
19/03:00am 18.4 14.2 8.1 51 5.4 E 20 30 11 16 - - 0.0
19/02:30am 19.0 14.5 6.8 45 6.2 ESE 20 39 11 21 - - 0.0
19/02:00am 19.3 14.7 5.7 41 6.8 ESE 19 26 10 14 - - 0.0
19/01:30am 20.1 15.5 5.7 39 7.3 ESE 19 30 10 16 - - 0.0
19/01:00am 20.9 16.9 6.8 40 7.3 ESE 17 28 9 15 - - 0.0
19/12:30am 20.8 17.0 7.4 42 7.0 ESE 17 26 9 14 - - 0.0
19/12:00am 20.6 17.4 8.6 46 6.4 ESE 15 24 8 13 - - 0.0
 
Date/Time
WST
Temp
°C
App
Temp
°C
Dew
Point
°C
Rel
Hum
%
Delta-T
°C
Wind Press
QNH
hPa
Press
MSL
hPa
Rain since
9am
mm
Dir  Spd
km/h
Gust
km/h
Spd
kts
Gust
kts
18/11:30pm 20.2 18.2 10.0 52 5.6 SE 11 17 6 9 - - 0.0
18/11:00pm 20.5 18.1 10.0 51 5.8 SE 13 20 7 11 - - 0.0
18/10:30pm 20.5 17.3 10.0 51 5.8 SSE 17 24 9 13 - - 0.0
18/10:00pm 20.5 17.8 10.3 52 5.6 S 15 20 8 11 - - 0.0
18/09:30pm 20.7 18.0 10.5 52 5.6 SSW 15 20 8 11 - - 0.0
18/09:00pm 21.0 18.3 10.5 51 5.8 SSW 15 17 8 9 - - 0.0
18/08:30pm 21.6 18.9 10.4 49 6.2 SSW 15 22 8 12 - - 0.0
18/08:00pm 21.9 18.9 10.7 49 6.3 SW 17 22 9 12 - - 0.0
18/07:30pm 22.7 19.7 10.5 46 6.8 SW 17 26 9 14 - - 0.0
18/07:00pm 23.6 20.6 10.6 44 7.3 SW 17 24 9 13 - - 0.0
18/06:30pm 24.9 21.9 10.8 41 8.0 SW 17 24 9 13 - - 0.0
18/06:00pm 26.3 24.0 11.6 40 8.5 SW 15 24 8 13 - - 0.0

Other formats

Comma delimited format used in spreadsheet applications
http://www.bom.gov.au/fwo/IDW60801/IDW60801.95610.axf

JavaScript Object Notation format (JSON) in row-major order
http://www.bom.gov.au/fwo/IDW60801/IDW60801.95610.json

Data quality

Most of these data are generated automatically and are frequently updated. Quality checks on data are not normally performed. It is possible for incorrect values to appear. Refer to information at About Latest Weather Observations and please check the disclaimer before using these data.